Terminal Aerodrome Forecast
Issued by NWS

Home | Current Version | Previous Version | Text Only | Print | Product List | Glossary Off
Versions: 1 2 3 4 5 6 7 8 9 10 11 12 13 14 15 16 17 18 19 20 21 22 23 24 25

000
FTUS43 KLOT 192332
TAFORD
TAF
KORD 192332Z 2000/2106 29008KT P6SM VCSH SCT050 BKN080
     FM200200 26006KT P6SM SCT080
     FM201500 27012G18KT P6SM SCT050 BKN080
      TEMPO 2017/2020 35020G30KT 5SM TSRA BKN050CB
     FM202000 03012KT 6SM -SHRA VCTS SCT050CB BKN080
     FM202200 17008KT P6SM SCT080=

USA.gov is the U.S. government's official web portal to all federal, state and local government web resources and services.